createdAt,value
2022-10-12T00:01:22.055Z,4.32
2022-10-12T00:03:49.133Z,4.03
2022-10-12T00:06:20.916Z,3.80
2022-10-12T00:08:49.826Z,3.50
2022-10-12T00:11:19.259Z,3.28
2022-10-12T00:13:46.116Z,3.63
2022-10-12T00:16:15.066Z,4.75
2022-10-12T00:18:41.980Z,4.07
2022-10-12T00:21:11.678Z,3.47
2022-10-12T00:23:38.934Z,3.80
2022-10-12T00:26:08.430Z,4.10
2022-10-12T00:28:35.982Z,4.30
2022-10-12T00:31:10.989Z,3.92
2022-10-12T00:33:40.274Z,2.92
2022-10-12T00:36:13.178Z,3.90
2022-10-12T00:38:39.872Z,3.55
2022-10-12T00:41:06.558Z,3.42
2022-10-12T00:43:37.895Z,4.15
2022-10-12T00:46:31.766Z,3.90
2022-10-12T00:49:09.896Z,3.55
2022-10-12T00:51:37.842Z,4.07
2022-10-12T00:54:07.185Z,3.95
2022-10-12T00:56:36.376Z,3.13
2022-10-12T00:59:06.814Z,3.42
2022-10-12T01:01:34.762Z,3.38
2022-10-12T01:04:02.561Z,4.00
2022-10-12T01:06:30.925Z,4.85
2022-10-12T01:08:57.992Z,5.30
2022-10-12T01:11:24.971Z,4.00
2022-10-12T01:13:51.829Z,4.00
2022-10-12T01:16:36.092Z,4.75
2022-10-12T01:19:33.930Z,4.78
2022-10-12T01:22:05.103Z,4.32
2022-10-12T01:24:52.834Z,4.00
2022-10-12T01:27:39.802Z,3.70
2022-10-12T01:30:12.629Z,3.45
2022-10-12T01:33:01.056Z,3.88
2022-10-12T01:35:39.124Z,4.00
2022-10-12T01:38:24.256Z,3.60
2022-10-12T01:40:56.830Z,3.75
2022-10-12T01:43:23.654Z,3.47
2022-10-12T01:45:50.643Z,3.60
2022-10-12T01:48:17.771Z,3.38
2022-10-12T01:50:56.081Z,4.15
2022-10-12T01:53:44.506Z,3.80
2022-10-12T01:56:33.205Z,3.35
2022-10-12T01:59:10.382Z,3.10
2022-10-12T02:01:44.436Z,3.53
2022-10-12T02:04:33.034Z,3.63
2022-10-12T02:07:04.801Z,3.83
2022-10-12T02:09:34.993Z,3.40
2022-10-12T02:12:10.966Z,3.70
2022-10-12T02:14:48.744Z,4.20
2022-10-12T02:17:18.394Z,5.00
2022-10-12T02:19:50.627Z,4.78
2022-10-12T02:22:18.134Z,6.55
2022-10-12T02:24:49.125Z,7.47
2022-10-12T02:27:18.380Z,5.30
2022-10-12T02:29:47.147Z,4.97
2022-10-12T02:32:29.163Z,4.90
2022-10-12T02:35:03.629Z,6.20
2022-10-12T02:37:40.347Z,5.22
2022-10-12T02:40:15.367Z,5.35
2022-10-12T02:43:09.315Z,5.18
2022-10-12T02:45:37.956Z,5.80
2022-10-12T02:48:07.231Z,5.20
2022-10-12T02:50:34.785Z,5.00
2022-10-12T02:53:01.880Z,4.75
2022-10-12T02:55:30.768Z,4.47
2022-10-12T02:57:57.526Z,4.63
2022-10-12T03:00:24.431Z,4.75
2022-10-12T03:02:51.252Z,5.00
2022-10-12T03:05:17.949Z,6.70
2022-10-12T03:07:44.651Z,5.50
2022-10-12T03:10:11.662Z,6.03
2022-10-12T03:12:38.333Z,4.93
2022-10-12T03:15:05.496Z,5.10
2022-10-12T03:17:32.221Z,4.57
2022-10-12T03:19:58.972Z,4.30
2022-10-12T03:22:25.629Z,4.00
2022-10-12T03:24:52.335Z,6.65
2022-10-12T03:27:19.006Z,9.88
2022-10-12T03:29:45.700Z,7.63
2022-10-12T03:32:12.403Z,15.70
2022-10-12T03:34:39.072Z,6.10
2022-10-12T03:37:05.759Z,4.50
2022-10-12T03:39:32.438Z,4.45
2022-10-12T03:41:59.217Z,4.45
2022-10-12T03:44:25.968Z,4.40
2022-10-12T03:46:52.891Z,4.55
2022-10-12T03:49:19.631Z,5.20
2022-10-12T03:51:46.393Z,5.03
2022-10-12T03:54:13.092Z,4.40
2022-10-12T03:56:39.853Z,4.63
2022-10-12T03:59:06.775Z,5.38
2022-10-12T04:01:33.691Z,5.32
2022-10-12T04:04:00.437Z,5.78
2022-10-12T04:06:27.219Z,5.70
2022-10-12T04:08:53.929Z,6.00
2022-10-12T04:11:20.609Z,4.80
2022-10-12T04:13:47.389Z,5.72
2022-10-12T04:16:14.302Z,5.13
2022-10-12T04:18:41.041Z,4.93
2022-10-12T04:21:12.381Z,5.07
2022-10-12T04:23:39.459Z,5.47
2022-10-12T04:26:06.234Z,6.65
2022-10-12T04:28:33.179Z,7.30
2022-10-12T04:30:59.853Z,5.80
2022-10-12T04:33:26.582Z,10.85
2022-10-12T04:35:53.266Z,19.38
2022-10-12T04:38:19.942Z,13.77
2022-10-12T04:40:50.056Z,10.65
2022-10-12T04:43:17.150Z,9.70
2022-10-12T04:45:43.850Z,9.00
2022-10-12T04:48:10.461Z,10.32
2022-10-12T04:50:37.151Z,9.20
2022-10-12T04:53:03.802Z,7.72
2022-10-12T04:55:30.444Z,11.10
2022-10-12T04:57:57.171Z,10.30
2022-10-12T05:00:23.801Z,7.70
2022-10-12T05:02:50.710Z,8.35
2022-10-12T05:05:17.429Z,9.35
2022-10-12T05:07:44.771Z,9.73
2022-10-12T05:10:11.680Z,8.25
2022-10-12T05:12:38.730Z,7.47
2022-10-12T05:15:06.028Z,5.90
2022-10-12T05:17:32.690Z,7.00
2022-10-12T05:19:59.331Z,6.43
2022-10-12T05:22:26.118Z,6.80
2022-10-12T05:24:53.899Z,6.40
2022-10-12T05:27:21.040Z,5.80
2022-10-12T05:29:47.773Z,6.32
2022-10-12T05:32:14.560Z,5.93
2022-10-12T05:34:42.306Z,6.45
2022-10-12T05:37:09.521Z,5.20
2022-10-12T05:39:37.215Z,5.03
2022-10-12T05:42:04.000Z,6.50
2022-10-12T05:44:31.081Z,6.32
2022-10-12T05:46:57.855Z,6.10
2022-10-12T05:49:24.878Z,5.88
2022-10-12T05:51:51.545Z,6.82
2022-10-12T05:54:18.204Z,7.05
2022-10-12T05:56:45.016Z,8.00
2022-10-12T05:59:11.897Z,7.32
2022-10-12T06:01:39.290Z,6.78
2022-10-12T06:04:06.085Z,7.80
2022-10-12T06:06:32.939Z,6.93
2022-10-12T06:08:59.535Z,6.97
2022-10-12T06:11:26.286Z,6.50
2022-10-12T06:13:54.267Z,8.10
2022-10-12T06:16:20.915Z,6.40
2022-10-12T06:18:47.569Z,6.35
2022-10-12T06:21:32.355Z,5.43
2022-10-12T06:23:59.973Z,5.55
2022-10-12T06:26:26.659Z,6.38
2022-10-12T06:28:53.437Z,6.00
2022-10-12T06:31:20.182Z,6.22
2022-10-12T06:33:46.867Z,6.18
2022-10-12T06:36:13.539Z,6.28
2022-10-12T06:38:40.174Z,6.30
2022-10-12T06:41:08.531Z,6.82
2022-10-12T06:43:35.164Z,6.13
2022-10-12T06:46:02.690Z,6.95
2022-10-12T06:48:30.278Z,7.65
2022-10-12T06:50:57.023Z,7.40
2022-10-12T06:53:25.436Z,7.70
2022-10-12T06:55:52.245Z,7.40
2022-10-12T06:58:18.909Z,8.07
2022-10-12T07:00:45.931Z,7.45
2022-10-12T07:03:13.628Z,7.68
2022-10-12T07:05:40.354Z,7.63
2022-10-12T07:08:07.042Z,6.80
2022-10-12T07:10:33.735Z,6.88
2022-10-12T07:13:00.601Z,7.43
2022-10-12T07:15:27.439Z,6.20
2022-10-12T07:17:54.077Z,7.53
2022-10-12T07:20:20.810Z,7.20
2022-10-12T07:22:47.638Z,7.43
2022-10-12T07:25:14.359Z,7.13
2022-10-12T07:27:41.591Z,7.78
2022-10-12T07:30:09.247Z,7.50
2022-10-12T07:32:35.946Z,7.75
2022-10-12T07:35:02.802Z,7.47
2022-10-12T07:37:29.450Z,7.38
2022-10-12T07:40:02.649Z,6.93
2022-10-12T07:42:30.353Z,7.45
2022-10-12T07:44:57.045Z,8.23
2022-10-12T07:47:23.840Z,7.95
2022-10-12T07:49:50.603Z,6.97
2022-10-12T07:52:17.317Z,7.10
2022-10-12T07:54:44.005Z,7.88
2022-10-12T07:57:10.727Z,7.63
2022-10-12T07:59:37.441Z,7.40
2022-10-12T08:02:04.218Z,7.20
2022-10-12T08:04:31.045Z,7.85
2022-10-12T08:06:59.511Z,7.03
2022-10-12T08:09:26.234Z,7.75
2022-10-12T08:11:52.976Z,7.70
2022-10-12T08:14:19.762Z,7.22
2022-10-12T08:16:46.590Z,7.40
2022-10-12T08:19:14.238Z,8.73
2022-10-12T08:21:42.639Z,7.57
2022-10-12T08:24:10.918Z,7.90
2022-10-12T08:26:37.734Z,7.72
2022-10-12T08:29:05.894Z,7.28
2022-10-12T08:31:32.714Z,7.40
2022-10-12T08:34:00.278Z,7.90
2022-10-12T08:36:27.472Z,7.72
2022-10-12T08:38:55.594Z,7.43
2022-10-12T08:41:41.257Z,8.40
2022-10-12T08:44:30.550Z,7.85
2022-10-12T08:47:13.413Z,7.57
2022-10-12T08:49:44.155Z,7.72
2022-10-12T08:52:19.673Z,9.80
2022-10-12T08:54:46.372Z,17.90
2022-10-12T08:57:17.549Z,8.02
2022-10-12T08:59:45.803Z,7.85
2022-10-12T09:02:37.103Z,8.38
2022-10-12T09:05:09.846Z,8.90
2022-10-12T09:07:47.902Z,8.70
2022-10-12T09:10:47.357Z,9.63
2022-10-12T09:13:22.336Z,10.68
2022-10-12T09:15:57.228Z,10.70
2022-10-12T09:18:40.588Z,9.80
2022-10-12T09:21:16.792Z,11.95
2022-10-12T09:23:44.330Z,10.27
2022-10-12T09:26:13.736Z,10.43
2022-10-12T09:28:44.900Z,8.98
2022-10-12T09:31:49.371Z,10.10
2022-10-12T09:34:19.268Z,10.10
2022-10-12T09:36:46.573Z,11.20
2022-10-12T09:39:18.907Z,11.65
2022-10-12T09:41:47.981Z,10.27
2022-10-12T09:44:29.136Z,10.85
2022-10-12T09:46:59.359Z,11.35
2022-10-12T09:49:46.749Z,12.32
2022-10-12T09:52:15.483Z,12.15
2022-10-12T09:54:48.123Z,11.27
2022-10-12T09:57:29.221Z,11.95
2022-10-12T10:00:02.702Z,10.80
2022-10-12T10:02:48.531Z,10.13
2022-10-12T10:05:36.796Z,10.15
2022-10-12T10:08:19.275Z,11.75
2022-10-12T10:10:51.492Z,11.02
2022-10-12T10:13:19.273Z,11.10
2022-10-12T10:15:49.678Z,10.48
2022-10-12T10:18:43.028Z,11.50
2022-10-12T10:21:13.062Z,12.75
2022-10-12T10:23:49.824Z,12.82
2022-10-12T10:26:19.225Z,12.88
2022-10-12T10:28:51.143Z,13.63
2022-10-12T10:31:25.456Z,11.52
2022-10-12T10:34:07.725Z,12.55
2022-10-12T10:36:39.798Z,12.70
2022-10-12T10:39:14.413Z,11.98
2022-10-12T10:41:43.054Z,12.13
2022-10-12T10:44:32.391Z,12.40
2022-10-12T10:47:04.774Z,12.25
2022-10-12T10:49:44.416Z,10.50
2022-10-12T10:52:30.166Z,11.30
2022-10-12T10:55:23.516Z,11.82
2022-10-12T10:58:43.026Z,11.00
2022-10-12T11:01:20.434Z,10.18
2022-10-12T11:04:02.502Z,10.75
2022-10-12T11:06:39.929Z,12.73
2022-10-12T11:09:14.493Z,12.77
2022-10-12T11:11:44.265Z,12.77
2022-10-12T11:14:21.832Z,12.00
2022-10-12T11:17:01.110Z,11.73
2022-10-12T11:19:37.088Z,10.98
2022-10-12T11:22:11.183Z,12.43
2022-10-12T11:24:49.979Z,13.23
2022-10-12T11:27:36.323Z,10.77
2022-10-12T11:30:12.510Z,12.57
2022-10-12T11:32:43.396Z,12.98
2022-10-12T11:35:17.430Z,11.07
2022-10-12T11:38:01.453Z,10.13
2022-10-12T11:43:33.710Z,10.48
2022-10-12T11:46:05.267Z,9.80
2022-10-12T11:48:39.575Z,9.25
2022-10-12T11:51:07.008Z,9.50
2022-10-12T11:53:42.841Z,9.73
2022-10-12T11:56:15.170Z,9.80
2022-10-12T11:59:01.471Z,9.63
2022-10-12T12:01:42.966Z,8.00
2022-10-12T12:04:43.773Z,8.55
2022-10-12T12:07:22.865Z,7.75
2022-10-12T12:09:51.351Z,10.20
2022-10-12T12:12:18.349Z,10.30
2022-10-12T12:14:47.278Z,9.60
2022-10-12T12:17:19.939Z,10.07
2022-10-12T12:19:54.217Z,10.65
2022-10-12T12:22:28.929Z,9.05
2022-10-12T12:25:12.869Z,8.68
2022-10-12T12:27:48.058Z,8.40
2022-10-12T12:30:17.729Z,8.85
2022-10-12T12:33:01.201Z,9.35
2022-10-12T12:35:39.500Z,8.73
2022-10-12T12:38:17.474Z,10.63
2022-10-12T12:41:01.879Z,9.27
2022-10-12T12:43:28.516Z,8.63
2022-10-12T12:46:14.559Z,8.77
2022-10-12T12:48:46.950Z,7.65
2022-10-12T12:51:22.005Z,9.00
2022-10-12T12:53:52.573Z,7.07
2022-10-12T12:56:22.038Z,7.60
2022-10-12T12:59:22.859Z,6.85
2022-10-12T13:02:11.135Z,8.13
2022-10-12T13:05:03.096Z,9.90
2022-10-12T13:08:03.080Z,8.43
2022-10-12T13:10:52.307Z,7.82
2022-10-12T13:13:46.913Z,7.47
2022-10-12T13:17:30.056Z,7.28
2022-10-12T13:19:22.578Z,7.95
2022-10-12T13:21:52.573Z,7.95
2022-10-12T13:24:30.259Z,6.60
2022-10-12T13:27:16.621Z,6.30
2022-10-12T13:30:06.673Z,6.05
2022-10-12T13:32:48.413Z,6.55
2022-10-12T13:35:37.254Z,7.75
2022-10-12T13:38:16.085Z,6.78
2022-10-12T13:40:51.530Z,5.50
2022-10-12T13:43:48.713Z,7.38
2022-10-12T13:46:40.986Z,7.68
2022-10-12T13:49:18.106Z,7.38
2022-10-12T13:51:48.728Z,6.60
2022-10-12T13:54:36.786Z,8.60
2022-10-12T13:57:30.200Z,7.38
2022-10-12T14:00:14.641Z,7.93
2022-10-12T14:02:43.152Z,8.38
2022-10-12T14:05:19.857Z,7.97
2022-10-12T14:07:48.804Z,8.38
2022-10-12T14:10:44.988Z,6.63
2022-10-12T14:13:17.770Z,7.28
2022-10-12T14:15:44.746Z,8.15
2022-10-12T14:18:31.697Z,7.80
2022-10-12T14:21:10.714Z,6.90
2022-10-12T14:23:42.978Z,5.80
2022-10-12T14:26:26.884Z,6.10
2022-10-12T14:28:54.498Z,6.40
2022-10-12T14:31:52.183Z,8.20
2022-10-12T14:34:27.689Z,7.72
2022-10-12T14:37:04.930Z,7.47
2022-10-12T14:39:33.152Z,6.78
2022-10-12T14:42:18.050Z,6.15
2022-10-12T14:44:44.778Z,6.68
2022-10-12T14:47:21.367Z,6.45
2022-10-12T14:49:50.243Z,6.68
2022-10-12T14:52:37.581Z,7.35
2022-10-12T14:55:05.335Z,6.20
2022-10-12T14:57:32.391Z,6.82
2022-10-12T14:59:59.332Z,7.43
2022-10-12T15:02:29.432Z,6.25
2022-10-12T15:04:56.741Z,6.30
2022-10-12T15:07:25.879Z,6.97
2022-10-12T15:09:53.506Z,6.25
2022-10-12T15:12:22.442Z,6.22
2022-10-12T15:14:51.389Z,6.68
2022-10-12T15:17:19.393Z,6.60
2022-10-12T15:19:48.317Z,6.28
2022-10-12T15:22:20.942Z,6.50
2022-10-12T15:24:48.290Z,6.60
2022-10-12T15:27:15.749Z,6.25
2022-10-12T15:29:42.682Z,6.82
2022-10-12T15:32:13.876Z,6.50
2022-10-12T15:34:40.873Z,7.28
2022-10-12T15:37:09.223Z,6.60
2022-10-12T15:39:39.261Z,8.27
2022-10-12T15:42:06.043Z,7.75
2022-10-12T15:44:39.899Z,7.47
2022-10-12T15:47:06.728Z,6.80
2022-10-12T15:49:33.545Z,7.60
2022-10-12T15:52:00.443Z,7.22
2022-10-12T15:54:27.216Z,8.48
2022-10-12T15:56:53.977Z,8.40
2022-10-12T15:59:20.897Z,7.00
2022-10-12T16:01:47.712Z,6.68
2022-10-12T16:04:15.713Z,6.63
2022-10-12T16:06:42.578Z,7.45
2022-10-12T16:09:09.387Z,7.28
2022-10-12T16:11:36.191Z,7.60
2022-10-12T16:14:02.971Z,7.80
2022-10-12T16:16:31.862Z,7.60
2022-10-12T16:18:58.619Z,7.93
2022-10-12T16:21:25.366Z,7.15
2022-10-12T16:23:52.356Z,8.02
2022-10-12T16:26:19.249Z,8.52
2022-10-12T16:28:46.077Z,8.10
2022-10-12T16:31:15.887Z,8.63
2022-10-12T16:33:43.236Z,8.45
2022-10-12T16:36:15.739Z,8.27
2022-10-12T16:38:43.885Z,9.05
2022-10-12T16:41:12.415Z,9.07
2022-10-12T16:43:39.632Z,8.60
2022-10-12T16:46:06.892Z,10.45
2022-10-12T16:48:34.251Z,16.90
2022-10-12T16:51:01.202Z,13.02
2022-10-12T16:53:27.951Z,11.35
2022-10-12T16:55:54.614Z,10.25
2022-10-12T16:58:21.604Z,8.85
2022-10-12T17:00:48.522Z,7.50
2022-10-12T17:03:15.330Z,7.60
2022-10-12T17:05:42.473Z,9.23
2022-10-12T17:08:15.025Z,12.73
2022-10-12T17:10:44.087Z,12.02
2022-10-12T17:13:13.250Z,12.65
2022-10-12T17:15:41.412Z,10.45
2022-10-12T17:18:08.580Z,8.40
2022-10-12T17:20:36.790Z,9.63
2022-10-12T17:23:03.777Z,9.50
2022-10-12T17:25:30.727Z,9.52
2022-10-12T17:27:57.383Z,9.68
2022-10-12T17:30:24.301Z,10.13
2022-10-12T17:32:51.071Z,9.55
2022-10-12T17:35:17.987Z,9.35
2022-10-12T17:37:44.723Z,9.15
2022-10-12T17:40:11.684Z,11.25
2022-10-12T17:42:38.581Z,12.95
2022-10-12T17:45:06.194Z,12.80
2022-10-12T17:47:33.143Z,35.38
2022-10-12T17:49:59.931Z,42.78
2022-10-12T17:52:26.709Z,57.20
2022-10-12T17:54:53.416Z,42.45
2022-10-12T17:57:20.532Z,25.20
2022-10-12T17:59:47.533Z,13.93
2022-10-12T18:02:14.218Z,11.48
2022-10-12T18:04:40.971Z,20.10
2022-10-12T18:07:07.733Z,13.18
2022-10-12T18:09:34.538Z,12.52
2022-10-12T18:12:01.235Z,11.55
2022-10-12T18:14:28.007Z,11.82
2022-10-12T18:16:54.874Z,12.63
2022-10-12T18:19:21.754Z,13.80
2022-10-12T18:21:48.546Z,11.93
2022-10-12T18:24:17.144Z,13.73
2022-10-12T18:26:46.114Z,12.95
2022-10-12T18:29:15.715Z,11.02
2022-10-12T18:31:42.533Z,10.55
2022-10-12T18:34:09.345Z,10.40
2022-10-12T18:36:36.547Z,10.95
2022-10-12T18:39:04.495Z,14.00
2022-10-12T18:41:31.592Z,14.65
2022-10-12T18:44:00.020Z,12.50
2022-10-12T18:46:29.028Z,12.70
2022-10-12T18:48:56.204Z,14.23
2022-10-12T18:51:31.582Z,16.70
2022-10-12T18:53:59.435Z,14.43
2022-10-12T18:56:26.548Z,15.10
2022-10-12T18:58:53.533Z,15.30
2022-10-12T19:01:22.892Z,13.63
2022-10-12T19:03:50.327Z,12.50
2022-10-12T19:06:21.812Z,11.43
2022-10-12T19:08:49.382Z,10.73
2022-10-12T19:11:18.728Z,10.98
2022-10-12T19:13:52.225Z,12.20
2022-10-12T19:16:19.485Z,12.20
2022-10-12T19:18:46.321Z,13.20
2022-10-12T19:21:16.359Z,13.20
2022-10-12T19:23:44.169Z,12.85
2022-10-12T19:26:17.680Z,15.77
2022-10-12T19:28:45.439Z,15.05
2022-10-12T19:31:15.957Z,14.50
2022-10-12T19:33:42.920Z,13.82
2022-10-12T19:36:12.005Z,12.23
2022-10-12T19:38:39.019Z,13.70
2022-10-12T19:41:06.418Z,14.57
2022-10-12T19:43:34.490Z,23.58
2022-10-12T19:46:07.091Z,20.02
2022-10-12T19:48:34.839Z,15.90
2022-10-12T19:51:07.317Z,17.08
2022-10-12T19:53:34.664Z,14.23
2022-10-12T19:56:02.886Z,11.43
2022-10-12T19:58:29.695Z,11.63
2022-10-12T20:01:12.708Z,11.52
2022-10-12T20:03:42.971Z,10.50
2022-10-12T20:06:13.370Z,9.93
2022-10-12T20:08:41.596Z,10.38
2022-10-12T20:11:12.128Z,10.15
2022-10-12T20:13:42.305Z,10.15
2022-10-12T20:16:09.074Z,10.43
2022-10-12T20:18:36.114Z,9.80
2022-10-12T20:21:07.675Z,9.75
2022-10-12T20:23:36.073Z,10.20
2022-10-12T20:26:07.336Z,11.18
2022-10-12T20:28:35.297Z,14.85
2022-10-12T20:31:03.436Z,16.40
2022-10-12T20:33:30.074Z,12.05
2022-10-12T20:35:56.782Z,10.30
2022-10-12T20:38:23.690Z,10.43
2022-10-12T20:41:09.441Z,10.43
2022-10-12T20:43:40.345Z,21.85
2022-10-12T20:46:08.956Z,13.27
2022-10-12T20:48:35.760Z,10.20
2022-10-12T20:51:09.380Z,9.32
2022-10-12T20:53:37.689Z,9.45
2022-10-12T20:56:06.519Z,9.18
2022-10-12T20:58:33.325Z,9.05
2022-10-12T21:01:08.837Z,9.15
2022-10-12T21:03:36.198Z,8.65
2022-10-12T21:06:08.544Z,12.70
2022-10-12T21:08:35.716Z,10.85
2022-10-12T21:11:04.010Z,10.77
2022-10-12T21:13:36.236Z,11.63
2022-10-12T21:16:02.988Z,10.15
2022-10-12T21:18:34.024Z,10.57
2022-10-12T21:21:11.461Z,12.73
2022-10-12T21:23:43.153Z,12.77
2022-10-12T21:26:30.576Z,13.18
2022-10-12T21:29:01.191Z,14.50
2022-10-12T21:31:32.419Z,12.07
2022-10-12T21:34:01.611Z,12.57
2022-10-12T21:36:29.916Z,15.10
2022-10-12T21:38:57.355Z,21.88
2022-10-12T21:41:27.083Z,11.23
2022-10-12T21:43:55.114Z,10.63
2022-10-12T21:46:32.855Z,15.00
2022-10-12T21:49:00.818Z,13.50
2022-10-12T21:51:29.846Z,12.65
2022-10-12T21:53:56.646Z,11.80
2022-10-12T21:56:25.883Z,12.63
2022-10-12T21:58:54.098Z,12.20
2022-10-12T22:01:23.434Z,10.80
2022-10-12T22:03:54.796Z,13.48
2022-10-12T22:06:23.050Z,12.32
2022-10-12T22:09:14.860Z,11.32
2022-10-12T22:11:41.810Z,11.82
2022-10-12T22:14:16.493Z,11.65
2022-10-12T22:16:43.329Z,10.07
2022-10-12T22:19:14.309Z,9.90
2022-10-12T22:21:41.469Z,11.82
2022-10-12T22:24:08.376Z,11.93
2022-10-12T22:26:35.408Z,10.07
2022-10-12T22:29:03.091Z,10.02
2022-10-12T22:31:29.802Z,9.35
2022-10-12T22:33:56.823Z,9.90
2022-10-12T22:36:23.484Z,9.57
2022-10-12T22:38:50.313Z,9.70
2022-10-12T22:41:19.588Z,9.80
2022-10-12T22:43:51.073Z,10.45
2022-10-12T22:46:18.549Z,9.50
2022-10-12T22:48:45.253Z,8.65
2022-10-12T22:51:16.863Z,10.05
2022-10-12T22:53:43.479Z,9.02
2022-10-12T22:56:16.184Z,9.32
2022-10-12T22:58:43.275Z,10.02
2022-10-12T23:01:15.754Z,9.27
2022-10-12T23:03:42.495Z,9.45
2022-10-12T23:06:16.003Z,24.33
2022-10-12T23:08:43.207Z,70.05
2022-10-12T23:11:13.749Z,14.93
2022-10-12T23:13:41.179Z,27.45
2022-10-12T23:16:17.153Z,19.48
2022-10-12T23:18:44.074Z,12.13
2022-10-12T23:21:16.298Z,13.43
2022-10-12T23:23:44.819Z,15.85
2022-10-12T23:26:17.084Z,14.98
2022-10-12T23:28:44.643Z,12.75
2022-10-12T23:31:23.353Z,12.32
2022-10-12T23:34:10.914Z,12.73
2022-10-12T23:36:37.520Z,12.50
2022-10-12T23:39:05.220Z,12.02
2022-10-12T23:41:31.930Z,10.75
2022-10-12T23:43:58.631Z,9.73
2022-10-12T23:46:25.310Z,10.68
2022-10-12T23:48:53.795Z,12.55
2022-10-12T23:51:20.461Z,11.75
2022-10-12T23:53:47.148Z,12.45
2022-10-12T23:56:14.175Z,11.02
2022-10-12T23:58:40.938Z,11.55
